Time;durP1;ratioP1;P1;durP2;ratioP2;P2;SDS_P1;SDS_P2;PMS_P1;PMS_P2;Temp;Humidity;BMP_temperature;BMP_pressure;BME280_temperature;BME280_humidity;BME280_pressure;Samples;Min_cycle;Max_cycle;Signal;HPM_P1;HPM_P2
2021/12/17 00:11:11;;;;;;;3.40;1.97;;;;;;;3.84;86.33;96530.30;1860128;77;22203;-69
2021/12/17 00:13:42;;;;;;;3.23;2.13;;;;;;;3.63;86.61;96528.96;1832434;78;20941;-69
2021/12/17 00:16:15;;;;;;;2.37;1.70;;;;;;;3.54;86.77;96524.82;1832342;78;21523;-69
2021/12/17 00:18:50;;;;;;;3.07;1.90;;;;;;;3.47;86.49;96531.61;1830727;78;21019;-69
2021/12/17 00:43:54;;;;;;;3.67;2.67;;;;;;;3.16;86.61;96528.69;1832409;78;21552;-71
2021/12/17 00:48:38;;;;;;;5.37;3.33;;;;;;;3.09;86.49;96530.67;1832727;78;20960;-71
2021/12/17 00:54:01;;;;;;;5.40;2.93;;;;;;;3.11;86.15;96521.17;1832133;78;21040;-71
2021/12/17 00:56:29;;;;;;;3.97;2.90;;;;;;;3.10;85.09;96536.77;1832387;78;20984;-71
2021/12/17 00:58:56;;;;;;;3.80;2.47;;;;;;;3.06;84.99;96530.61;1832394;78;21011;-70
2021/12/17 01:01:24;;;;;;;5.20;3.00;;;;;;;3.07;84.49;96524.96;1832227;78;21000;-71
2021/12/17 01:03:52;;;;;;;5.57;3.50;;;;;;;3.07;84.81;96525.84;1832406;78;21046;-71
2021/12/17 01:06:20;;;;;;;3.70;2.07;;;;;;;3.08;85.12;96522.41;1832126;78;21513;-71
2021/12/17 01:08:48;;;;;;;4.40;3.47;;;;;;;3.04;83.95;96537.07;1832385;78;20988;-71
2021/12/17 01:11:17;;;;;;;4.83;2.77;;;;;;;2.99;83.92;96523.03;1835357;78;21079;-71
2021/12/17 01:13:46;;;;;;;6.43;3.50;;;;;;;3.00;83.48;96527.42;1829460;78;21058;-71
2021/12/17 01:16:15;;;;;;;5.53;3.33;;;;;;;3.05;83.38;96531.46;1832753;78;21474;-71
2021/12/17 01:22:01;;;;;;;6.20;3.10;;;;;;;3.06;83.21;96532.34;1715641;84;21101;-71
2021/12/17 01:35:43;;;;;;;6.87;3.97;;;;;;;3.01;81.56;96514.84;1832567;78;21795;-71
2021/12/17 01:41:45;;;;;;;5.47;3.43;;;;;;;3.02;80.64;96516.63;1834850;78;21020;-71
2021/12/17 01:43:47;;;;;;;7.93;3.33;;;;;;;3.00;80.62;96526.55;1830745;78;21008;-71
2021/12/17 01:46:20;;;;;;;8.13;4.43;;;;;;;2.92;80.46;96526.75;1835290;78;21501;-71
2021/12/17 01:59:18;;;;;;;6.23;4.00;;;;;;;2.90;79.10;96535.86;1835260;78;20988;-71
2021/12/17 01:59:36;;;;;;;7.00;3.67;;;;;;;2.91;79.29;96532.82;1830356;78;21011;-71
2021/12/17 02:02:04;;;;;;;6.78;4.05;;;;;;;2.91;79.60;96527.61;1834326;78;21079;-71
2021/12/17 02:04:35;;;;;;;5.77;3.27;;;;;;;2.89;79.10;96525.37;1834967;78;21062;-71
2021/12/17 02:07:04;;;;;;;7.00;4.87;;;;;;;2.90;79.48;96524.13;1835543;78;21030;-71
2021/12/17 02:29:25;;;;;;;11.20;6.33;;;;;;;2.89;79.57;96516.25;1840838;78;20952;-71
2021/12/17 02:31:36;;;;;;;9.70;6.37;;;;;;;2.88;79.48;96515.38;1836987;78;21413;-71
2021/12/17 02:34:29;;;;;;;10.17;6.13;;;;;;;2.85;79.59;96507.48;1840729;78;21067;-71
2021/12/17 02:36:40;;;;;;;14.33;7.40;;;;;;;2.83;79.96;96509.59;1835597;78;20992;-71
2021/12/17 02:39:34;;;;;;;12.33;6.90;;;;;;;2.83;80.47;96507.86;1807420;78;20995;-71
2021/12/17 02:47:16;;;;;;;12.30;7.77;;;;;;;2.78;80.52;96514.67;1840711;78;21007;-71
2021/12/17 02:49:45;;;;;;;14.33;7.23;;;;;;;2.72;80.56;96510.59;1840646;78;21005;-70
2021/12/17 02:52:14;;;;;;;14.23;9.07;;;;;;;2.66;80.42;96503.50;1840665;78;21035;-71
2021/12/17 02:54:43;;;;;;;15.97;9.87;;;;;;;2.67;80.68;96506.98;1840819;78;21484;-71
2021/12/17 02:57:11;;;;;;;15.73;9.87;;;;;;;2.66;80.61;96496.11;1840732;78;21007;-71
2021/12/17 02:59:39;;;;;;;18.07;10.57;;;;;;;2.66;80.81;96496.98;1840767;78;21003;-71
2021/12/17 03:02:28;;;;;;;16.10;9.90;;;;;;;2.69;80.94;96496.19;1840405;78;21027;-71
2021/12/17 03:04:55;;;;;;;15.20;9.87;;;;;;;2.68;80.92;96497.04;1840727;78;20995;-71
2021/12/17 03:07:22;;;;;;;14.57;9.23;;;;;;;2.70;81.28;96491.03;1840337;78;21031;-71
2021/12/17 03:10:06;;;;;;;13.37;8.70;;;;;;;2.71;81.51;96486.69;1840026;78;20984;-71
2021/12/17 03:12:46;;;;;;;14.40;9.60;;;;;;;2.71;82.05;96486.69;1835211;78;21356;-71
2021/12/17 03:15:23;;;;;;;16.73;10.13;;;;;;;2.70;81.80;96485.81;1835040;78;21027;-71
2021/12/17 03:25:48;;;;;;;16.03;9.67;;;;;;;2.69;81.76;96480.55;1835275;78;20991;-71
2021/12/17 03:28:14;;;;;;;15.60;10.27;;;;;;;2.66;81.44;96479.17;1835037;78;20999;-71
2021/12/17 03:30:41;;;;;;;16.33;8.53;;;;;;;2.68;81.92;96470.98;1835167;78;21058;-71
2021/12/17 03:33:08;;;;;;;16.03;9.30;;;;;;;2.66;81.71;96473.53;1835278;78;20995;-71
2021/12/17 03:35:35;;;;;;;12.23;7.20;;;;;;;2.60;81.66;96470.36;1834987;78;20976;-71
2021/12/17 03:38:02;;;;;;;17.97;9.87;;;;;;;2.57;81.44;96471.59;1835180;78;21018;-72
2021/12/17 03:40:31;;;;;;;16.83;10.57;;;;;;;2.55;81.47;96476.30;1834954;78;20959;-71
2021/12/17 03:43:03;;;;;;;17.93;11.50;;;;;;;2.51;81.50;96472.70;1835112;78;21004;-72
2021/12/17 03:45:28;;;;;;;19.93;11.63;;;;;;;2.47;81.63;96473.88;1807190;78;21505;-71
2021/12/17 03:47:57;;;;;;;17.10;10.90;;;;;;;2.42;81.29;96472.48;1834209;78;21520;-71
2021/12/17 03:50:25;;;;;;;19.90;12.17;;;;;;;2.39;81.56;96471.07;1834973;78;21058;-72
2021/12/17 03:52:52;;;;;;;19.10;11.53;;;;;;;2.35;81.61;96467.95;1835103;78;21019;-72
2021/12/17 03:55:21;;;;;;;22.03;12.80;;;;;;;2.31;82.23;96469.99;1835258;78;21012;-71
2021/12/17 03:57:48;;;;;;;18.90;12.37;;;;;;;2.29;82.17;96474.27;1835153;78;21518;-71
2021/12/17 04:00:16;;;;;;;19.37;11.80;;;;;;;2.27;82.19;96462.92;1834727;78;21019;-71
2021/12/17 04:02:46;;;;;;;18.37;10.83;;;;;;;2.22;82.18;96469.73;1834692;78;20999;-71
2021/12/17 04:05:26;;;;;;;18.40;11.63;;;;;;;2.17;82.34;96477.44;1833301;78;21050;-71
2021/12/17 04:08:13;;;;;;;18.50;11.33;;;;;;;2.15;82.68;96470.00;1830948;78;21051;-71
2021/12/17 04:11:04;;;;;;;18.63;11.30;;;;;;;2.18;83.03;96467.90;1837585;78;21539;-70
2021/12/17 04:13:35;;;;;;;17.87;11.30;;;;;;;2.18;82.97;96466.17;1840751;78;21536;-70
2021/12/17 04:16:09;;;;;;;19.35;11.78;;;;;;;2.13;83.17;96459.53;1840864;78;21556;-67
2021/12/17 04:18:40;;;;;;;18.27;10.88;;;;;;;2.09;83.23;96455.09;1840756;78;21003;-69
2021/12/17 04:21:15;;;;;;;15.90;10.43;;;;;;;2.11;83.63;96455.12;1807282;78;21026;-71
2021/12/17 04:23:46;;;;;;;16.53;10.10;;;;;;;2.12;83.84;96446.48;1840742;78;21019;-71
2021/12/17 04:26:15;;;;;;;18.97;10.93;;;;;;;2.01;83.68;96442.27;1840630;78;21043;-72
2021/12/17 04:28:48;;;;;;;17.17;10.07;;;;;;;1.94;83.71;96445.13;1840597;78;21552;-80
2021/12/17 04:31:16;;;;;;;27.63;16.73;;;;;;;1.95;83.90;96438.20;1840730;78;21007;-73
2021/12/17 04:33:43;;;;;;;19.70;12.77;;;;;;;1.86;83.67;96447.03;1840642;78;21008;-73
2021/12/17 04:36:20;;;;;;;14.43;8.80;;;;;;;1.88;83.88;96443.64;1840386;78;21011;-73
2021/12/17 04:38:43;;;;;;;16.17;10.53;;;;;;;1.91;82.18;96439.81;1839973;78;21015;-74
2021/12/17 04:44:16;;;;;;;20.00;11.77;;;;;;;1.94;81.48;96429.52;1840842;78;21046;-73
2021/12/17 04:46:30;;;;;;;19.40;12.60;;;;;;;1.94;81.48;96424.70;1804039;78;21497;-73
2021/12/17 04:59:50;;;;;;;20.57;11.97;;;;;;;1.86;81.32;96430.12;1840534;78;20984;-73
2021/12/17 05:02:18;;;;;;;20.50;11.03;;;;;;;1.89;81.64;96430.20;1840796;78;21010;-73
2021/12/17 05:04:47;;;;;;;18.73;10.47;;;;;;;1.89;81.66;96432.80;1839645;78;21019;-73
2021/12/17 05:07:16;;;;;;;18.00;11.37;;;;;;;1.89;81.79;96433.72;1840685;78;20987;-73
2021/12/17 05:23:07;;;;;;;17.40;8.80;;;;;;;1.66;82.31;96446.06;1837531;78;21497;-73
2021/12/17 05:25:34;;;;;;;19.60;13.13;;;;;;;1.67;81.91;96443.91;1802364;78;21011;-73
2021/12/17 05:28:02;;;;;;;16.37;9.90;;;;;;;1.69;82.33;96443.55;1837626;78;20992;-73
2021/12/17 05:30:34;;;;;;;22.87;11.47;;;;;;;1.73;82.58;96454.48;1837667;78;21502;-73
2021/12/17 05:33:01;;;;;;;21.50;11.50;;;;;;;1.68;82.67;96444.36;1837618;78;20988;-74
2021/12/17 05:35:29;;;;;;;18.77;10.67;;;;;;;1.66;82.92;96445.16;1837372;78;20984;-73
2021/12/17 05:37:57;;;;;;;24.17;12.97;;;;;;;1.70;83.20;96446.59;1837640;78;21035;-73
2021/12/17 05:40:24;;;;;;;19.97;13.03;;;;;;;1.68;82.60;96445.66;1837426;78;21029;-74
2021/12/17 05:42:57;;;;;;;23.03;12.83;;;;;;;1.70;82.68;96446.59;1837591;78;21413;-74
2021/12/17 05:45:34;;;;;;;23.00;11.63;;;;;;;1.71;82.23;96439.66;1832664;78;21067;-74
2021/12/17 05:48:05;;;;;;;18.63;11.77;;;;;;;1.75;82.72;96440.66;1836921;78;21546;-76
2021/12/17 05:50:33;;;;;;;19.87;11.83;;;;;;;1.76;82.52;96446.31;1837159;78;21058;-79
2021/12/17 05:53:01;;;;;;;17.07;10.93;;;;;;;1.73;81.94;96435.39;1836525;78;21101;-78
2021/12/17 05:55:28;;;;;;;15.87;9.70;;;;;;;1.76;82.19;96441.11;1836436;78;21465;-79
2021/12/17 05:57:55;;;;;;;17.40;9.67;;;;;;;1.77;82.38;96439.86;1835748;78;21551;-78
2021/12/17 06:00:23;;;;;;;22.47;10.87;;;;;;;1.70;82.31;96432.28;1836079;78;21551;-72
2021/12/17 06:02:50;;;;;;;22.00;11.93;;;;;;;1.65;82.48;96431.70;1837335;78;21011;-67
2021/12/17 06:05:19;;;;;;;16.17;10.13;;;;;;;1.71;83.12;96437.06;1834314;78;21042;-74
2021/12/17 06:07:46;;;;;;;16.97;9.87;;;;;;;1.75;83.04;96431.55;1836937;78;21547;-77
2021/12/17 06:10:13;;;;;;;24.67;12.33;;;;;;;1.65;82.78;96427.80;1836961;78;21021;-69
2021/12/17 06:12:42;;;;;;;22.43;11.47;;;;;;;1.64;83.30;96425.63;1831464;78;21469;-68
2021/12/17 06:15:13;;;;;;;21.17;11.67;;;;;;;1.67;83.63;96419.20;1831687;78;20968;-67
2021/12/17 06:17:42;;;;;;;22.27;12.70;;;;;;;1.73;83.48;96418.48;1831648;78;21035;-68
2021/12/17 06:20:12;;;;;;;21.43;12.53;;;;;;;1.66;83.01;96423.05;1793205;78;21042;-66
2021/12/17 06:22:40;;;;;;;16.83;10.73;;;;;;;1.63;83.18;96421.66;1830800;78;21142;-70
2021/12/17 06:25:10;;;;;;;22.53;13.23;;;;;;;1.62;83.25;96424.69;1793563;78;21541;-70
2021/12/17 06:27:37;;;;;;;18.70;11.20;;;;;;;1.65;83.77;96422.59;1830851;78;21011;-69
2021/12/17 06:30:07;;;;;;;24.50;12.07;;;;;;;1.67;83.85;96420.92;1830690;78;21019;-69
2021/12/17 06:32:34;;;;;;;19.80;12.00;;;;;;;1.62;83.33;96421.21;1831286;78;20992;-70
2021/12/17 06:35:01;;;;;;;20.53;9.60;;;;;;;1.59;83.35;96418.10;1826934;78;20946;-69
2021/12/17 06:37:28;;;;;;;23.93;12.57;;;;;;;1.56;83.60;96427.52;1790216;80;21078;-70
2021/12/17 06:39:55;;;;;;;15.93;10.17;;;;;;;1.52;83.81;96425.25;1763411;81;20995;-70
2021/12/17 06:42:22;;;;;;;21.03;10.50;;;;;;;1.57;84.13;96421.07;1762619;81;21618;-70
2021/12/17 06:44:48;;;;;;;22.00;11.23;;;;;;;1.63;84.25;96426.44;1762244;81;21026;-68
2021/12/17 06:47:28;;;;;;;16.43;10.20;;;;;;;1.69;84.33;96424.03;1762503;81;21061;-71
2021/12/17 06:49:52;;;;;;;16.80;10.03;;;;;;;1.75;83.87;96422.45;1756144;81;21102;-72
2021/12/17 06:55:15;;;;;;;21.40;11.40;;;;;;;1.76;83.21;96424.20;1762761;81;21003;-72
2021/12/17 07:06:47;;;;;;;21.87;12.43;;;;;;;1.84;82.15;96422.69;1762938;81;21501;-66
2021/12/17 07:22:46;;;;;;;25.73;15.27;;;;;;;1.75;81.57;96411.61;1732897;81;21129;-67
2021/12/17 07:33:21;;;;;;;22.67;12.67;;;;;;;1.84;81.85;96427.50;1669445;86;21085;-67
2021/12/17 07:35:53;;;;;;;20.23;11.37;;;;;;;1.86;81.83;96421.02;1668386;86;21109;-69
2021/12/17 07:41:04;;;;;;;;;;;;;;;1.84;81.32;96421.38;1765742;81;21535;-68
2021/12/17 07:43:40;;;;;;;23.13;11.27;;;;;;;1.82;81.25;96425.69;1763229;81;20090;-68
2021/12/17 07:46:07;;;;;;;16.75;11.12;;;;;;;1.83;81.48;96424.84;1761680;81;21005;-66
2021/12/17 07:48:36;;;;;;;19.37;9.97;;;;;;;1.87;81.77;96424.97;1763397;81;21016;-66
2021/12/17 07:51:08;;;;;;;19.93;12.13;;;;;;;1.90;81.45;96425.05;1762108;81;21488;-67
2021/12/17 07:53:54;;;;;;;18.97;10.37;;;;;;;1.89;81.47;96422.00;1763150;81;21552;-68
2021/12/17 07:56:26;;;;;;;18.20;11.23;;;;;;;1.90;81.55;96423.75;1763175;81;21467;-68
2021/12/17 07:58:54;;;;;;;20.50;11.30;;;;;;;1.90;81.43;96418.55;1762829;81;21062;-65
2021/12/17 08:01:21;;;;;;;16.27;9.80;;;;;;;1.90;81.43;96415.95;1763297;81;21014;-65
2021/12/17 08:03:49;;;;;;;18.23;8.53;;;;;;;1.88;81.41;96416.74;1733444;81;20979;-67
2021/12/17 08:06:37;;;;;;;18.40;10.10;;;;;;;1.94;81.53;96419.50;1760860;81;21007;-70
2021/12/17 08:09:06;;;;;;;16.77;9.67;;;;;;;1.96;81.54;96423.03;1751004;81;21015;-67
2021/12/17 08:11:38;;;;;;;17.77;9.30;;;;;;;1.97;81.29;96422.64;1762588;81;21011;-69
2021/12/17 08:14:02;;;;;;;19.83;10.40;;;;;;;1.99;81.46;96419.23;1762249;81;21503;-69
2021/12/17 08:29:44;;;;;;;15.73;9.03;;;;;;;1.95;80.62;96416.95;1787515;80;21005;-66
2021/12/17 08:31:58;;;;;;;13.90;7.77;;;;;;;1.89;80.86;96412.89;1756628;81;21015;-67
2021/12/17 08:34:27;;;;;;;14.90;8.60;;;;;;;1.84;81.03;96411.88;1786856;80;21006;-67
2021/12/17 08:36:55;;;;;;;17.53;9.07;;;;;;;1.85;81.03;96410.16;1760075;81;21038;-68
2021/12/17 08:39:23;;;;;;;15.33;8.50;;;;;;;1.87;81.10;96409.78;1787584;80;21003;-66
2021/12/17 08:41:53;;;;;;;15.93;8.77;;;;;;;1.88;81.09;96405.03;1738605;82;20950;-65
2021/12/17 08:44:22;;;;;;;16.10;9.77;;;;;;;1.92;81.25;96412.09;1760080;81;21015;-68
2021/12/17 08:46:59;;;;;;;16.27;10.60;;;;;;;1.96;81.36;96404.81;1748730;80;20963;-68
2021/12/17 08:49:28;;;;;;;15.57;8.03;;;;;;;2.00;81.22;96404.50;1760120;81;21015;-68
2021/12/17 08:51:56;;;;;;;16.50;8.93;;;;;;;1.98;80.89;96401.84;1787950;80;21030;-69
2021/12/17 08:54:23;;;;;;;13.60;7.73;;;;;;;2.03;80.98;96396.77;1760254;81;21071;-67
2021/12/17 08:56:50;;;;;;;10.17;5.77;;;;;;;2.05;80.45;96393.80;1787829;80;20995;-67
2021/12/17 08:59:18;;;;;;;12.87;7.80;;;;;;;2.03;79.87;96398.07;1760445;81;21022;-66
2021/12/17 09:01:59;;;;;;;11.33;6.73;;;;;;;2.04;79.84;96397.22;1743919;80;21054;-67
2021/12/17 09:04:27;;;;;;;11.67;7.20;;;;;;;2.06;79.75;96396.42;1760250;81;21030;-66
2021/12/17 09:06:55;;;;;;;30.53;16.67;;;;;;;2.10;79.50;96396.09;1787711;80;21011;-65
2021/12/17 09:09:23;;;;;;;27.23;15.07;;;;;;;2.08;79.42;96395.17;1760071;81;21002;-65
2021/12/17 09:11:50;;;;;;;26.67;14.87;;;;;;;2.06;79.93;96393.81;1759849;81;21035;-66
2021/12/17 09:14:20;;;;;;;19.73;9.83;;;;;;;2.11;79.93;96388.73;1754018;81;21066;-68
2021/12/17 09:16:50;;;;;;;27.43;13.77;;;;;;;2.12;79.22;96391.39;1786081;80;21019;-69
2021/12/17 09:19:17;;;;;;;39.00;19.50;;;;;;;2.07;79.34;96389.09;1759896;81;21480;-68
2021/12/17 09:21:46;;;;;;;18.10;9.83;;;;;;;2.12;79.69;96384.89;1759227;81;21472;-70
2021/12/17 09:24:17;;;;;;;21.03;11.10;;;;;;;2.21;79.40;96388.56;1785369;80;21031;-69
2021/12/17 09:27:03;;;;;;;25.97;12.67;;;;;;;2.23;79.04;96384.28;1760319;81;21023;-69
2021/12/17 09:29:31;;;;;;;25.03;11.97;;;;;;;2.25;79.19;96376.09;1758476;81;21019;-70
2021/12/17 09:31:57;;;;;;;15.97;9.63;;;;;;;2.28;79.14;96370.97;1760300;81;21042;-67
2021/12/17 09:34:24;;;;;;;13.83;8.03;;;;;;;2.29;79.28;96363.20;1787856;80;21026;-66
2021/12/17 09:36:51;;;;;;;31.30;14.23;;;;;;;2.24;78.25;96360.88;1787655;80;20994;-66
2021/12/17 09:39:18;;;;;;;20.30;9.40;;;;;;;2.32;78.62;96357.19;1760031;81;21058;-67
2021/12/17 09:41:50;;;;;;;12.37;7.30;;;;;;;2.35;78.07;96358.56;1776727;79;21425;-67
2021/12/17 09:44:15;;;;;;;17.93;9.67;;;;;;;2.44;77.85;96360.08;1773701;81;21091;-70
2021/12/17 09:46:47;;;;;;;15.33;8.40;;;;;;;2.48;77.78;96364.96;1773417;80;21062;-68
2021/12/17 09:49:17;;;;;;;18.93;10.37;;;;;;;2.59;77.46;96355.67;1773411;81;21027;-67
2021/12/17 09:51:46;;;;;;;34.30;16.90;;;;;;;2.76;77.14;96351.75;1773849;80;20996;-67
2021/12/17 09:54:14;;;;;;;15.83;8.47;;;;;;;3.06;76.14;96349.40;1773420;81;21074;-67
2021/12/17 09:56:43;;;;;;;19.87;12.13;;;;;;;3.47;75.31;96346.80;1769863;80;21086;-68
2021/12/17 09:59:12;;;;;;;20.60;11.87;;;;;;;3.98;74.22;96339.57;1764728;81;20991;-67
2021/12/17 10:01:42;;;;;;;18.13;10.10;;;;;;;4.10;72.85;96346.30;1755481;82;21023;-64
2021/12/17 10:04:27;;;;;;;15.57;9.77;;;;;;;3.97;73.03;96346.93;1779982;81;21508;-64
2021/12/17 10:07:18;;;;;;;18.83;10.03;;;;;;;3.73;72.64;96340.83;1779570;80;21007;-64
2021/12/17 10:09:55;;;;;;;21.47;13.60;;;;;;;3.52;72.72;96346.90;1760124;81;21558;-64
2021/12/17 10:12:28;;;;;;;17.57;9.60;;;;;;;3.32;73.75;96344.74;1760215;81;21539;-64
2021/12/17 10:15:09;;;;;;;21.60;12.15;;;;;;;3.12;74.24;96340.39;1759664;81;21026;-64
2021/12/17 10:18:00;;;;;;;17.07;10.23;;;;;;;2.95;74.97;96337.44;1759584;81;21065;-64
2021/12/17 10:20:29;;;;;;;17.97;10.70;;;;;;;2.81;75.88;96337.09;1759275;81;21011;-65
2021/12/17 10:23:09;;;;;;;22.23;10.53;;;;;;;2.76;76.22;96338.72;1801155;79;21061;-64
2021/12/17 10:25:39;;;;;;;18.13;9.53;;;;;;;2.75;76.68;96333.49;1764502;81;21002;-64
2021/12/17 10:28:07;;;;;;;13.43;8.33;;;;;;;2.66;76.43;96327.63;1764579;81;21011;-64
2021/12/17 10:30:38;;;;;;;17.77;10.07;;;;;;;2.57;76.63;96331.30;1764713;81;21007;-66
2021/12/17 10:33:09;;;;;;;18.90;9.50;;;;;;;2.56;76.77;96322.61;1764650;81;21041;-64
2021/12/17 10:35:43;;;;;;;26.80;13.13;;;;;;;2.50;76.74;96331.59;1764128;81;21066;-64
2021/12/17 10:38:11;;;;;;;17.80;10.27;;;;;;;2.55;76.93;96323.89;1764561;81;21489;-64
2021/12/17 10:41:06;;;;;;;22.93;13.23;;;;;;;2.48;77.08;96322.86;1764587;81;21038;-65
2021/12/17 10:43:38;;;;;;;23.87;13.53;;;;;;;2.44;77.24;96323.61;1764497;81;21030;-64
2021/12/17 10:46:22;;;;;;;22.97;12.60;;;;;;;2.47;77.30;96325.02;1764505;81;20990;-64
2021/12/17 10:54:17;;;;;;;24.67;14.13;;;;;;;2.52;76.87;96335.52;1728157;81;21006;-66
2021/12/17 10:56:53;;;;;;;16.37;9.07;;;;;;;2.44;76.96;96334.03;1764261;81;21034;-64
2021/12/17 10:59:27;;;;;;;15.27;8.93;;;;;;;2.37;77.21;96328.23;1764818;81;21045;-65
2021/12/17 11:02:00;;;;;;;14.37;8.03;;;;;;;2.33;77.34;96332.90;1764214;81;21049;-66
2021/12/17 11:04:43;;;;;;;19.67;11.10;;;;;;;2.32;77.14;96332.03;1763406;81;20979;-65
2021/12/17 11:07:16;;;;;;;17.80;9.83;;;;;;;2.25;77.49;96331.41;1763229;81;21100;-65
2021/12/17 11:09:55;;;;;;;18.57;9.40;;;;;;;2.21;77.56;96339.97;1764460;81;21507;-64
2021/12/17 11:12:38;;;;;;;12.43;7.50;;;;;;;2.15;77.81;96330.71;1764092;81;21042;-65
2021/12/17 11:15:19;;;;;;;9.80;6.80;;;;;;;2.16;77.88;96329.86;1764642;81;21010;-64
2021/12/17 11:17:53;;;;;;;15.90;9.70;;;;;;;2.08;78.19;96332.27;1764288;81;21507;-65
2021/12/17 11:20:27;;;;;;;28.97;13.03;;;;;;;2.11;78.30;96333.64;1764743;81;21070;-65
2021/12/17 11:22:56;;;;;;;35.37;16.10;;;;;;;2.14;78.35;96332.84;1763831;81;21038;-64
2021/12/17 11:25:24;;;;;;;33.17;15.70;;;;;;;2.18;78.41;96323.41;1764477;81;21002;-65
2021/12/17 11:27:53;;;;;;;20.57;8.40;;;;;;;2.23;78.40;96327.87;1764873;81;20995;-64
2021/12/17 11:30:24;;;;;;;13.13;7.77;;;;;;;2.26;78.24;96330.98;1764740;81;21031;-65
2021/12/17 11:32:52;;;;;;;16.40;8.97;;;;;;;2.28;77.98;96330.17;1764841;81;21002;-65
2021/12/17 11:35:26;;;;;;;13.80;8.07;;;;;;;2.32;78.20;96322.91;1764998;81;21025;-64
2021/12/17 11:37:57;;;;;;;14.77;8.90;;;;;;;2.33;77.75;96322.05;1764729;81;21057;-64
2021/12/17 11:40:31;;;;;;;15.90;8.67;;;;;;;2.34;77.63;96322.92;1764614;81;21038;-64
2021/12/17 11:43:38;;;;;;;14.53;6.90;;;;;;;2.37;77.64;96319.13;1764633;81;21054;-64
2021/12/17 11:46:09;;;;;;;14.20;7.70;;;;;;;2.38;77.13;96323.05;1764583;81;21141;-64
2021/12/17 11:48:36;;;;;;;13.50;7.53;;;;;;;2.35;77.21;96320.80;1764502;81;21022;-64
2021/12/17 11:51:14;;;;;;;16.17;8.53;;;;;;;2.37;77.49;96320.00;1764739;81;21022;-64
2021/12/17 11:53:58;;;;;;;22.03;12.87;;;;;;;2.36;77.68;96317.34;1763924;81;21044;-64
2021/12/17 11:56:52;;;;;;;17.97;9.87;;;;;;;2.40;77.59;96315.72;1764635;81;21547;-65
2021/12/17 11:59:32;;;;;;;20.27;10.40;;;;;;;2.37;77.66;96311.31;1764679;81;21034;-64
2021/12/17 12:02:22;;;;;;;19.07;10.07;;;;;;;2.34;77.48;96316.42;1764750;81;21014;-64
2021/12/17 12:04:58;;;;;;;20.30;10.07;;;;;;;2.30;77.49;96314.60;1764386;81;21535;-64
2021/12/17 12:07:31;;;;;;;14.87;8.40;;;;;;;2.30;77.72;96307.66;1764524;81;21472;-64
2021/12/17 12:10:13;;;;;;;23.62;10.82;;;;;;;2.34;77.68;96307.30;1764682;81;21022;-64
2021/12/17 12:12:50;;;;;;;17.40;8.63;;;;;;;2.33;77.52;96300.34;1764551;81;21057;-64
2021/12/17 12:15:31;;;;;;;8.77;6.83;;;;;;;2.35;77.33;96296.06;1764834;81;21045;-64
2021/12/17 12:18:08;;;;;;;12.80;7.07;;;;;;;2.38;77.45;96290.49;1763469;81;21504;-64
2021/12/17 12:20:51;;;;;;;15.30;10.07;;;;;;;2.38;76.99;96298.30;1764217;81;21015;-64
2021/12/17 12:23:37;;;;;;;18.37;9.83;;;;;;;2.39;76.94;96290.06;1764835;81;21015;-64
2021/12/17 12:26:12;;;;;;;39.37;25.73;;;;;;;2.32;76.60;96294.27;1764933;81;21067;-64
2021/12/17 12:28:54;;;;;;;74.77;42.07;;;;;;;2.27;76.52;96300.17;1764548;81;21121;-64
2021/12/17 12:31:32;;;;;;;16.27;9.80;;;;;;;2.30;76.78;96291.16;1764975;81;20994;-64
2021/12/17 12:34:14;;;;;;;15.03;9.63;;;;;;;2.27;76.72;96293.67;1764732;81;21079;-64
2021/12/17 12:37:15;;;;;;;19.57;9.73;;;;;;;2.23;76.80;96288.82;1764627;81;21012;-64
2021/12/17 12:39:54;;;;;;;12.90;7.93;;;;;;;2.26;76.95;96292.80;1764902;81;21065;-65
2021/12/17 12:42:38;;;;;;;14.13;7.27;;;;;;;2.28;76.77;96290.24;1761995;81;21002;-64
2021/12/17 12:45:12;;;;;;;15.20;8.57;;;;;;;2.26;76.57;96294.52;1764733;81;20974;-64
2021/12/17 12:47:48;;;;;;;22.10;13.47;;;;;;;2.27;76.44;96296.27;1764434;81;20971;-65
2021/12/17 12:50:25;;;;;;;10.70;7.37;;;;;;;2.23;76.01;96295.33;1763676;81;21039;-64
2021/12/17 12:52:56;;;;;;;8.57;5.40;;;;;;;2.21;76.25;96289.63;1764775;81;20990;-64
2021/12/17 12:55:31;;;;;;;9.20;4.53;;;;;;;2.19;76.58;96289.58;1764392;81;21527;-64
2021/12/17 12:58:06;;;;;;;10.10;4.83;;;;;;;2.15;75.98;96287.76;1764687;81;21002;-64
2021/12/17 13:00:44;;;;;;;11.23;6.80;;;;;;;2.10;76.26;96289.37;1735116;81;21078;-64
2021/12/17 13:03:18;;;;;;;12.00;5.77;;;;;;;2.13;76.61;96288.13;1764930;81;21130;-64
2021/12/17 13:05:47;;;;;;;12.13;6.70;;;;;;;2.13;76.76;96290.73;1764734;81;20979;-64
2021/12/17 13:08:19;;;;;;;15.50;5.83;;;;;;;2.11;77.01;96295.89;1764868;81;21049;-64
2021/12/17 13:10:54;;;;;;;13.20;7.40;;;;;;;2.06;75.99;96286.22;1769142;81;20955;-64
2021/12/17 13:16:13;;;;;;;9.50;4.10;;;;;;;2.03;76.36;96300.45;1779697;81;21006;-64
2021/12/17 13:24:13;;;;;;;5.87;3.25;;;;;;;2.00;76.03;96301.27;1779662;81;21521;-64
2021/12/17 13:26:54;;;;;;;6.70;3.77;;;;;;;2.04;75.93;96299.21;1755130;81;20995;-64
2021/12/17 13:29:33;;;;;;;8.63;4.73;;;;;;;2.00;75.74;96299.09;1778954;81;21012;-67
2021/12/17 13:32:05;;;;;;;7.33;3.60;;;;;;;2.01;75.87;96303.02;1779484;81;21020;-67
2021/12/17 13:34:45;;;;;;;7.80;3.80;;;;;;;1.94;75.53;96304.59;1779865;81;21508;-65
2021/12/17 13:37:24;;;;;;;8.17;4.53;;;;;;;1.94;75.74;96312.41;1779717;81;21521;-65
2021/12/17 13:40:08;;;;;;;9.13;4.53;;;;;;;1.89;75.92;96311.41;1779441;81;21090;-66
2021/12/17 13:42:40;;;;;;;11.83;4.63;;;;;;;1.87;76.05;96307.00;1779730;81;20989;-66
2021/12/17 13:45:11;;;;;;;10.67;4.77;;;;;;;1.85;76.26;96309.55;1779625;81;20976;-66
2021/12/17 13:47:41;;;;;;;11.47;5.63;;;;;;;1.85;76.46;96310.84;1779733;81;21009;-66
2021/12/17 13:50:31;;;;;;;14.97;7.20;;;;;;;1.85;76.49;96307.38;1778508;81;21063;-66
2021/12/17 13:53:05;;;;;;;15.37;6.97;;;;;;;1.88;76.62;96313.95;1778154;81;21015;-66
2021/12/17 13:55:45;;;;;;;10.47;5.60;;;;;;;1.91;76.75;96307.52;1779528;81;21046;-66
2021/12/17 13:58:16;;;;;;;11.53;5.47;;;;;;;1.94;76.74;96308.50;1779437;81;21054;-66
2021/12/17 14:00:49;;;;;;;10.17;5.00;;;;;;;1.94;76.69;96311.49;1779472;81;21082;-65
2021/12/17 14:03:19;;;;;;;10.28;4.47;;;;;;;1.97;76.70;96308.12;1779842;81;21046;-66
2021/12/17 14:05:50;;;;;;;9.93;4.97;;;;;;;1.93;76.43;96305.41;1779577;81;21028;-66
2021/12/17 14:08:18;;;;;;;10.80;4.90;;;;;;;1.93;76.42;96312.34;1779879;81;20996;-66
2021/12/17 14:10:47;;;;;;;9.80;5.53;;;;;;;1.92;76.64;96311.47;1779332;81;21469;-66
2021/12/17 14:13:22;;;;;;;6.40;4.33;;;;;;;1.91;76.54;96308.82;1779355;81;21111;-66
2021/12/17 14:15:51;;;;;;;10.17;5.70;;;;;;;1.90;76.37;96313.58;1779808;81;21015;-66
2021/12/17 14:18:22;;;;;;;9.50;3.87;;;;;;;1.85;75.87;96316.48;1779674;81;21028;-66
2021/12/17 14:21:04;;;;;;;5.90;4.17;;;;;;;1.75;75.52;96319.25;1779565;81;21469;-65
2021/12/17 14:23:33;;;;;;;9.97;4.07;;;;;;;1.70;75.69;96321.72;1779654;81;21003;-65
2021/12/17 14:26:03;;;;;;;6.47;3.40;;;;;;;1.66;75.66;96324.19;1751287;81;21023;-66
2021/12/17 14:28:33;;;;;;;8.43;3.63;;;;;;;1.67;75.60;96324.67;1779552;81;21501;-66
2021/12/17 14:31:09;;;;;;;11.43;4.53;;;;;;;1.66;75.85;96322.89;1779710;81;21007;-67
2021/12/17 14:33:42;;;;;;;9.70;5.03;;;;;;;1.64;75.61;96322.00;1779450;81;21023;-67
2021/12/17 14:36:38;;;;;;;16.35;5.58;;;;;;;1.66;75.71;96322.50;1779947;81;21485;-66
2021/12/17 14:39:09;;;;;;;6.40;3.92;;;;;;;1.67;75.64;96326.84;1780031;81;21532;-67
2021/12/17 14:41:45;;;;;;;8.70;4.85;;;;;;;1.63;75.28;96334.52;1779857;81;21493;-67
2021/12/17 14:45:20;;;;;;;8.43;3.43;;;;;;;1.65;75.38;96325.92;1776050;81;21043;-67
2021/12/17 14:46:59;;;;;;;10.03;3.90;;;;;;;1.65;75.51;96319.84;1745663;81;21039;-66
2021/12/17 15:03:26;;;;;;;9.27;4.13;;;;;;;1.50;75.58;96322.47;1779708;81;21476;-66
2021/12/17 15:05:51;;;;;;;10.27;4.13;;;;;;;1.48;75.61;96325.44;1779928;81;21032;-67
2021/12/17 15:08:18;;;;;;;6.20;3.53;;;;;;;1.48;75.37;96333.24;1779542;81;21086;-67
2021/12/17 15:10:47;;;;;;;10.13;4.23;;;;;;;1.45;75.17;96329.27;1779496;81;21046;-66
2021/12/17 15:13:15;;;;;;;9.27;4.07;;;;;;;1.45;75.05;96334.89;1779048;81;21517;-66
2021/12/17 15:15:42;;;;;;;8.17;3.47;;;;;;;1.45;75.37;96333.59;1770795;81;21063;-66